sensor_id;sensor_type;location;lat;lon;timestamp;P1;durP1;ratioP1;P2;durP2;ratioP2
72755;SDS011;60881;55.002;73.232;2022-09-03T00:01:18;14.85;;;3.53;;
72755;SDS011;60881;55.002;73.232;2022-09-03T00:03:50;17.17;;;4.50;;
72755;SDS011;60881;55.002;73.232;2022-09-03T00:06:35;20.75;;;4.05;;
72755;SDS011;60881;55.002;73.232;2022-09-03T00:09:29;20.40;;;3.83;;
72755;SDS011;60881;55.002;73.232;2022-09-03T00:12:20;14.88;;;3.90;;
72755;SDS011;60881;55.002;73.232;2022-09-03T00:14:54;24.60;;;4.45;;
72755;SDS011;60881;55.002;73.232;2022-09-03T00:17:35;15.73;;;4.05;;
72755;SDS011;60881;55.002;73.232;2022-09-03T00:22:50;19.48;;;4.30;;
72755;SDS011;60881;55.002;73.232;2022-09-03T00:25:42;20.17;;;4.20;;
72755;SDS011;60881;55.002;73.232;2022-09-03T00:28:22;17.35;;;3.78;;
72755;SDS011;60881;55.002;73.232;2022-09-03T00:31:02;14.88;;;3.90;;
72755;SDS011;60881;55.002;73.232;2022-09-03T00:33:37;12.80;;;4.07;;
72755;SDS011;60881;55.002;73.232;2022-09-03T00:36:11;21.75;;;4.13;;
72755;SDS011;60881;55.002;73.232;2022-09-03T00:38:58;13.90;;;4.00;;
72755;SDS011;60881;55.002;73.232;2022-09-03T00:44:09;20.10;;;4.40;;
72755;SDS011;60881;55.002;73.232;2022-09-03T00:46:46;26.75;;;4.25;;
72755;SDS011;60881;55.002;73.232;2022-09-03T00:54:46;15.23;;;4.47;;
72755;SDS011;60881;55.002;73.232;2022-09-03T01:00:19;11.43;;;4.10;;
72755;SDS011;60881;55.002;73.232;2022-09-03T01:11:23;13.93;;;4.07;;
72755;SDS011;60881;55.002;73.232;2022-09-03T01:14:30;22.98;;;4.60;;
72755;SDS011;60881;55.002;73.232;2022-09-03T01:20:13;23.20;;;4.55;;
72755;SDS011;60881;55.002;73.232;2022-09-03T01:23:10;17.33;;;4.80;;
72755;SDS011;60881;55.002;73.232;2022-09-03T01:31:33;29.30;;;5.00;;
72755;SDS011;60881;55.002;73.232;2022-09-03T01:40:02;22.98;;;5.10;;
72755;SDS011;60881;55.002;73.232;2022-09-03T01:45:31;24.63;;;5.70;;
72755;SDS011;60881;55.002;73.232;2022-09-03T01:51:17;27.80;;;5.32;;
72755;SDS011;60881;55.002;73.232;2022-09-03T01:54:00;17.83;;;5.03;;
72755;SDS011;60881;55.002;73.232;2022-09-03T02:00:18;24.33;;;5.18;;
72755;SDS011;60881;55.002;73.232;2022-09-03T02:02:51;27.00;;;5.20;;
72755;SDS011;60881;55.002;73.232;2022-09-03T02:07:56;18.13;;;4.95;;
72755;SDS011;60881;55.002;73.232;2022-09-03T02:15:55;34.45;;;5.50;;
72755;SDS011;60881;55.002;73.232;2022-09-03T02:18:25;30.63;;;5.40;;
72755;SDS011;60881;55.002;73.232;2022-09-03T02:20:59;22.95;;;5.03;;
72755;SDS011;60881;55.002;73.232;2022-09-03T02:23:27;33.80;;;5.45;;
72755;SDS011;60881;55.002;73.232;2022-09-03T02:25:55;20.60;;;5.20;;
72755;SDS011;60881;55.002;73.232;2022-09-03T02:28:25;29.38;;;5.80;;
72755;SDS011;60881;55.002;73.232;2022-09-03T02:30:59;30.95;;;5.38;;
72755;SDS011;60881;55.002;73.232;2022-09-03T02:33:31;22.70;;;5.57;;
72755;SDS011;60881;55.002;73.232;2022-09-03T02:36:03;22.00;;;5.85;;
72755;SDS011;60881;55.002;73.232;2022-09-03T02:38:33;33.47;;;5.95;;
72755;SDS011;60881;55.002;73.232;2022-09-03T02:41:00;30.63;;;5.82;;
72755;SDS011;60881;55.002;73.232;2022-09-03T02:43:31;28.98;;;6.38;;
72755;SDS011;60881;55.002;73.232;2022-09-03T02:46:11;33.15;;;6.00;;
72755;SDS011;60881;55.002;73.232;2022-09-03T02:48:43;26.90;;;5.72;;
72755;SDS011;60881;55.002;73.232;2022-09-03T02:51:09;34.33;;;6.07;;
72755;SDS011;60881;55.002;73.232;2022-09-03T02:53:36;34.78;;;7.28;;
72755;SDS011;60881;55.002;73.232;2022-09-03T02:56:04;41.15;;;6.10;;
72755;SDS011;60881;55.002;73.232;2022-09-03T02:58:31;29.58;;;5.70;;
72755;SDS011;60881;55.002;73.232;2022-09-03T03:01:03;27.63;;;5.90;;
72755;SDS011;60881;55.002;73.232;2022-09-03T03:03:30;44.78;;;5.78;;
72755;SDS011;60881;55.002;73.232;2022-09-03T03:06:02;29.35;;;5.55;;
72755;SDS011;60881;55.002;73.232;2022-09-03T03:08:30;42.67;;;6.57;;
72755;SDS011;60881;55.002;73.232;2022-09-03T03:10:59;47.85;;;6.85;;
72755;SDS011;60881;55.002;73.232;2022-09-03T03:13:27;39.15;;;6.15;;
72755;SDS011;60881;55.002;73.232;2022-09-03T03:16:05;48.50;;;6.57;;
72755;SDS011;60881;55.002;73.232;2022-09-03T03:18:42;43.13;;;7.03;;
72755;SDS011;60881;55.002;73.232;2022-09-03T03:21:12;38.85;;;6.75;;
72755;SDS011;60881;55.002;73.232;2022-09-03T03:23:40;43.35;;;7.43;;
72755;SDS011;60881;55.002;73.232;2022-09-03T03:26:08;41.38;;;7.38;;
72755;SDS011;60881;55.002;73.232;2022-09-03T03:28:36;32.33;;;7.50;;
72755;SDS011;60881;55.002;73.232;2022-09-03T03:31:06;34.42;;;7.80;;
72755;SDS011;60881;55.002;73.232;2022-09-03T03:36:09;47.22;;;7.82;;
72755;SDS011;60881;55.002;73.232;2022-09-03T03:38:39;38.22;;;7.57;;
72755;SDS011;60881;55.002;73.232;2022-09-03T03:41:07;50.58;;;7.30;;
72755;SDS011;60881;55.002;73.232;2022-09-03T03:43:34;52.05;;;7.55;;
72755;SDS011;60881;55.002;73.232;2022-09-03T03:46:05;47.75;;;7.30;;
72755;SDS011;60881;55.002;73.232;2022-09-03T03:48:36;41.85;;;7.43;;
72755;SDS011;60881;55.002;73.232;2022-09-03T03:51:14;48.97;;;7.25;;
72755;SDS011;60881;55.002;73.232;2022-09-03T03:53:47;51.65;;;7.65;;
72755;SDS011;60881;55.002;73.232;2022-09-03T03:56:14;57.72;;;8.02;;
72755;SDS011;60881;55.002;73.232;2022-09-03T03:58:41;40.75;;;7.18;;
72755;SDS011;60881;55.002;73.232;2022-09-03T04:01:10;45.80;;;7.72;;
72755;SDS011;60881;55.002;73.232;2022-09-03T04:03:41;48.72;;;7.00;;
72755;SDS011;60881;55.002;73.232;2022-09-03T04:06:08;51.80;;;7.30;;
72755;SDS011;60881;55.002;73.232;2022-09-03T04:08:42;48.70;;;7.65;;
72755;SDS011;60881;55.002;73.232;2022-09-03T04:11:11;47.97;;;7.90;;
72755;SDS011;60881;55.002;73.232;2022-09-03T04:13:40;53.15;;;7.78;;
72755;SDS011;60881;55.002;73.232;2022-09-03T04:16:18;42.13;;;8.15;;
72755;SDS011;60881;55.002;73.232;2022-09-03T04:18:46;51.33;;;8.35;;
72755;SDS011;60881;55.002;73.232;2022-09-03T04:21:19;67.18;;;8.45;;
72755;SDS011;60881;55.002;73.232;2022-09-03T04:23:56;51.50;;;9.85;;
72755;SDS011;60881;55.002;73.232;2022-09-03T04:26:24;79.75;;;9.15;;
72755;SDS011;60881;55.002;73.232;2022-09-03T04:28:59;44.40;;;8.60;;
72755;SDS011;60881;55.002;73.232;2022-09-03T04:31:28;52.25;;;8.27;;
72755;SDS011;60881;55.002;73.232;2022-09-03T04:33:55;57.45;;;9.48;;
72755;SDS011;60881;55.002;73.232;2022-09-03T04:36:24;44.72;;;8.95;;
72755;SDS011;60881;55.002;73.232;2022-09-03T04:38:52;62.70;;;9.15;;
72755;SDS011;60881;55.002;73.232;2022-09-03T04:41:25;71.43;;;9.18;;
72755;SDS011;60881;55.002;73.232;2022-09-03T04:44:00;54.08;;;8.80;;
72755;SDS011;60881;55.002;73.232;2022-09-03T04:46:27;68.40;;;9.10;;
72755;SDS011;60881;55.002;73.232;2022-09-03T04:49:07;50.53;;;8.27;;
72755;SDS011;60881;55.002;73.232;2022-09-03T04:51:40;50.63;;;7.38;;
72755;SDS011;60881;55.002;73.232;2022-09-03T04:54:08;35.45;;;6.57;;
72755;SDS011;60881;55.002;73.232;2022-09-03T04:56:46;42.97;;;7.25;;
72755;SDS011;60881;55.002;73.232;2022-09-03T04:59:13;38.20;;;6.85;;
72755;SDS011;60881;55.002;73.232;2022-09-03T05:01:50;42.97;;;7.10;;
72755;SDS011;60881;55.002;73.232;2022-09-03T05:04:21;44.58;;;7.18;;
72755;SDS011;60881;55.002;73.232;2022-09-03T05:06:47;51.85;;;6.25;;
72755;SDS011;60881;55.002;73.232;2022-09-03T05:09:16;41.08;;;5.75;;
72755;SDS011;60881;55.002;73.232;2022-09-03T05:11:43;39.13;;;6.03;;
72755;SDS011;60881;55.002;73.232;2022-09-03T05:14:16;43.35;;;6.35;;
72755;SDS011;60881;55.002;73.232;2022-09-03T05:16:52;40.75;;;5.55;;
72755;SDS011;60881;55.002;73.232;2022-09-03T05:19:19;37.05;;;5.90;;
72755;SDS011;60881;55.002;73.232;2022-09-03T05:21:45;48.03;;;5.25;;
72755;SDS011;60881;55.002;73.232;2022-09-03T05:24:12;39.05;;;5.28;;
72755;SDS011;60881;55.002;73.232;2022-09-03T05:26:39;44.10;;;5.20;;
72755;SDS011;60881;55.002;73.232;2022-09-03T05:29:07;38.97;;;5.20;;
72755;SDS011;60881;55.002;73.232;2022-09-03T05:31:44;30.20;;;4.80;;
72755;SDS011;60881;55.002;73.232;2022-09-03T05:34:15;43.70;;;5.28;;
72755;SDS011;60881;55.002;73.232;2022-09-03T05:36:47;78.45;;;5.68;;
72755;SDS011;60881;55.002;73.232;2022-09-03T05:39:15;48.58;;;6.05;;
72755;SDS011;60881;55.002;73.232;2022-09-03T05:41:42;55.58;;;6.20;;
72755;SDS011;60881;55.002;73.232;2022-09-03T05:44:08;48.70;;;5.30;;
72755;SDS011;60881;55.002;73.232;2022-09-03T05:46:34;40.88;;;5.57;;
72755;SDS011;60881;55.002;73.232;2022-09-03T05:49:12;36.78;;;5.75;;
72755;SDS011;60881;55.002;73.232;2022-09-03T05:51:39;39.40;;;5.80;;
72755;SDS011;60881;55.002;73.232;2022-09-03T05:54:11;38.65;;;5.25;;
72755;SDS011;60881;55.002;73.232;2022-09-03T05:56:38;47.45;;;5.47;;
72755;SDS011;60881;55.002;73.232;2022-09-03T05:59:06;62.42;;;6.22;;
72755;SDS011;60881;55.002;73.232;2022-09-03T06:01:36;40.08;;;6.53;;
72755;SDS011;60881;55.002;73.232;2022-09-03T06:04:08;60.50;;;6.28;;
72755;SDS011;60881;55.002;73.232;2022-09-03T06:06:37;75.03;;;6.35;;
72755;SDS011;60881;55.002;73.232;2022-09-03T06:09:07;60.90;;;6.60;;
72755;SDS011;60881;55.002;73.232;2022-09-03T06:11:36;64.40;;;5.70;;
72755;SDS011;60881;55.002;73.232;2022-09-03T06:14:04;57.55;;;6.18;;
72755;SDS011;60881;55.002;73.232;2022-09-03T06:16:35;38.53;;;5.53;;
72755;SDS011;60881;55.002;73.232;2022-09-03T06:19:04;57.70;;;5.95;;
72755;SDS011;60881;55.002;73.232;2022-09-03T06:21:41;71.97;;;6.45;;
72755;SDS011;60881;55.002;73.232;2022-09-03T06:24:09;59.10;;;6.88;;
72755;SDS011;60881;55.002;73.232;2022-09-03T06:26:38;46.30;;;6.03;;
72755;SDS011;60881;55.002;73.232;2022-09-03T06:29:10;73.60;;;6.68;;
72755;SDS011;60881;55.002;73.232;2022-09-03T06:31:37;65.50;;;6.72;;
72755;SDS011;60881;55.002;73.232;2022-09-03T06:34:09;47.38;;;6.18;;
72755;SDS011;60881;55.002;73.232;2022-09-03T06:36:36;56.60;;;6.03;;
72755;SDS011;60881;55.002;73.232;2022-09-03T06:39:02;71.18;;;7.03;;
72755;SDS011;60881;55.002;73.232;2022-09-03T06:41:38;53.00;;;5.88;;
72755;SDS011;60881;55.002;73.232;2022-09-03T06:44:05;42.47;;;5.85;;
72755;SDS011;60881;55.002;73.232;2022-09-03T06:46:38;55.65;;;6.13;;
72755;SDS011;60881;55.002;73.232;2022-09-03T06:49:07;44.50;;;5.70;;
72755;SDS011;60881;55.002;73.232;2022-09-03T06:51:44;69.18;;;5.60;;
72755;SDS011;60881;55.002;73.232;2022-09-03T06:54:16;61.67;;;6.32;;
72755;SDS011;60881;55.002;73.232;2022-09-03T06:56:46;47.50;;;5.70;;
72755;SDS011;60881;55.002;73.232;2022-09-03T06:59:14;47.53;;;5.43;;
72755;SDS011;60881;55.002;73.232;2022-09-03T07:01:43;51.45;;;5.50;;
72755;SDS011;60881;55.002;73.232;2022-09-03T07:04:10;45.42;;;6.20;;
72755;SDS011;60881;55.002;73.232;2022-09-03T07:06:38;52.35;;;6.28;;
72755;SDS011;60881;55.002;73.232;2022-09-03T07:09:07;45.33;;;6.15;;
72755;SDS011;60881;55.002;73.232;2022-09-03T07:11:35;50.60;;;6.20;;
72755;SDS011;60881;55.002;73.232;2022-09-03T07:14:02;52.95;;;6.00;;
72755;SDS011;60881;55.002;73.232;2022-09-03T07:16:33;51.13;;;6.28;;
72755;SDS011;60881;55.002;73.232;2022-09-03T07:19:01;106.57;;;6.93;;
72755;SDS011;60881;55.002;73.232;2022-09-03T07:21:39;36.00;;;5.35;;
72755;SDS011;60881;55.002;73.232;2022-09-03T07:24:07;46.38;;;6.70;;
72755;SDS011;60881;55.002;73.232;2022-09-03T07:26:40;50.47;;;5.30;;
72755;SDS011;60881;55.002;73.232;2022-09-03T07:29:14;47.85;;;5.53;;
72755;SDS011;60881;55.002;73.232;2022-09-03T07:31:45;59.03;;;4.82;;
72755;SDS011;60881;55.002;73.232;2022-09-03T07:34:12;59.03;;;6.05;;
72755;SDS011;60881;55.002;73.232;2022-09-03T07:36:42;50.30;;;4.57;;
72755;SDS011;60881;55.002;73.232;2022-09-03T07:39:16;131.23;;;7.88;;
72755;SDS011;60881;55.002;73.232;2022-09-03T07:41:45;59.08;;;5.30;;
72755;SDS011;60881;55.002;73.232;2022-09-03T07:44:13;44.42;;;4.75;;
72755;SDS011;60881;55.002;73.232;2022-09-03T07:46:44;35.25;;;5.57;;
72755;SDS011;60881;55.002;73.232;2022-09-03T07:49:19;40.65;;;5.15;;
72755;SDS011;60881;55.002;73.232;2022-09-03T07:51:47;20.90;;;4.30;;
72755;SDS011;60881;55.002;73.232;2022-09-03T07:54:16;25.63;;;3.97;;
72755;SDS011;60881;55.002;73.232;2022-09-03T07:56:53;31.05;;;4.05;;
72755;SDS011;60881;55.002;73.232;2022-09-03T07:59:20;31.38;;;4.88;;
72755;SDS011;60881;55.002;73.232;2022-09-03T08:01:48;31.83;;;5.07;;
72755;SDS011;60881;55.002;73.232;2022-09-03T08:04:15;35.05;;;4.53;;
72755;SDS011;60881;55.002;73.232;2022-09-03T08:06:51;41.15;;;4.43;;
72755;SDS011;60881;55.002;73.232;2022-09-03T08:09:20;34.80;;;4.22;;
72755;SDS011;60881;55.002;73.232;2022-09-03T08:11:46;38.80;;;5.25;;
72755;SDS011;60881;55.002;73.232;2022-09-03T08:14:13;40.40;;;4.95;;
72755;SDS011;60881;55.002;73.232;2022-09-03T08:16:41;55.47;;;5.57;;
72755;SDS011;60881;55.002;73.232;2022-09-03T08:19:19;41.47;;;7.13;;
72755;SDS011;60881;55.002;73.232;2022-09-03T08:21:47;34.15;;;6.65;;
72755;SDS011;60881;55.002;73.232;2022-09-03T08:24:14;35.72;;;6.95;;
72755;SDS011;60881;55.002;73.232;2022-09-03T08:26:46;45.20;;;7.50;;
72755;SDS011;60881;55.002;73.232;2022-09-03T08:29:12;34.30;;;5.82;;
72755;SDS011;60881;55.002;73.232;2022-09-03T08:31:40;42.53;;;4.43;;
72755;SDS011;60881;55.002;73.232;2022-09-03T08:34:10;37.65;;;4.25;;
72755;SDS011;60881;55.002;73.232;2022-09-03T08:36:38;25.10;;;4.60;;
72755;SDS011;60881;55.002;73.232;2022-09-03T08:39:08;26.55;;;4.85;;
72755;SDS011;60881;55.002;73.232;2022-09-03T08:41:39;37.67;;;5.25;;
72755;SDS011;60881;55.002;73.232;2022-09-03T08:44:34;28.83;;;5.38;;
72755;SDS011;60881;55.002;73.232;2022-09-03T08:58:20;30.38;;;6.10;;
72755;SDS011;60881;55.002;73.232;2022-09-03T09:01:03;37.95;;;5.90;;
72755;SDS011;60881;55.002;73.232;2022-09-03T09:06:16;27.85;;;5.22;;
72755;SDS011;60881;55.002;73.232;2022-09-03T09:15:07;37.50;;;11.32;;
72755;SDS011;60881;55.002;73.232;2022-09-03T09:23:05;32.47;;;8.25;;
72755;SDS011;60881;55.002;73.232;2022-09-03T09:25:33;39.17;;;6.95;;
72755;SDS011;60881;55.002;73.232;2022-09-03T09:28:15;33.40;;;10.82;;
72755;SDS011;60881;55.002;73.232;2022-09-03T09:30:43;52.85;;;10.07;;
72755;SDS011;60881;55.002;73.232;2022-09-03T09:33:14;44.63;;;8.32;;
72755;SDS011;60881;55.002;73.232;2022-09-03T09:35:42;44.70;;;8.27;;
72755;SDS011;60881;55.002;73.232;2022-09-03T09:38:29;56.75;;;8.60;;
72755;SDS011;60881;55.002;73.232;2022-09-03T09:41:07;56.85;;;9.23;;
72755;SDS011;60881;55.002;73.232;2022-09-03T09:44:00;29.95;;;7.63;;
72755;SDS011;60881;55.002;73.232;2022-09-03T09:46:31;36.35;;;6.20;;
72755;SDS011;60881;55.002;73.232;2022-09-03T09:49:01;40.90;;;7.53;;
72755;SDS011;60881;55.002;73.232;2022-09-03T09:51:30;29.92;;;6.88;;
72755;SDS011;60881;55.002;73.232;2022-09-03T09:54:11;28.27;;;5.80;;
72755;SDS011;60881;55.002;73.232;2022-09-03T09:59:08;27.75;;;6.20;;
72755;SDS011;60881;55.002;73.232;2022-09-03T10:01:43;28.65;;;7.10;;
72755;SDS011;60881;55.002;73.232;2022-09-03T10:04:12;38.22;;;6.57;;
72755;SDS011;60881;55.002;73.232;2022-09-03T10:06:55;35.45;;;6.43;;
72755;SDS011;60881;55.002;73.232;2022-09-03T10:09:32;32.42;;;5.88;;
72755;SDS011;60881;55.002;73.232;2022-09-03T10:12:12;35.90;;;5.78;;
72755;SDS011;60881;55.002;73.232;2022-09-03T10:14:41;45.58;;;6.90;;
72755;SDS011;60881;55.002;73.232;2022-09-03T10:28:29;34.92;;;7.72;;
72755;SDS011;60881;55.002;73.232;2022-09-03T10:31:07;47.10;;;10.73;;
72755;SDS011;60881;55.002;73.232;2022-09-03T10:36:10;38.63;;;9.27;;
72755;SDS011;60881;55.002;73.232;2022-09-03T10:38:54;47.08;;;8.45;;
72755;SDS011;60881;55.002;73.232;2022-09-03T10:44:14;42.75;;;7.28;;
72755;SDS011;60881;55.002;73.232;2022-09-03T10:47:03;41.08;;;6.93;;
72755;SDS011;60881;55.002;73.232;2022-09-03T10:52:26;36.42;;;6.10;;
72755;SDS011;60881;55.002;73.232;2022-09-03T11:00:31;57.50;;;6.40;;
72755;SDS011;60881;55.002;73.232;2022-09-03T11:05:59;38.70;;;5.90;;
72755;SDS011;60881;55.002;73.232;2022-09-03T11:08:31;34.40;;;5.80;;
72755;SDS011;60881;55.002;73.232;2022-09-03T11:11:09;32.75;;;5.80;;
72755;SDS011;60881;55.002;73.232;2022-09-03T11:13:45;33.50;;;5.35;;
72755;SDS011;60881;55.002;73.232;2022-09-03T11:16:22;41.22;;;5.47;;
72755;SDS011;60881;55.002;73.232;2022-09-03T11:18:57;42.97;;;5.32;;
72755;SDS011;60881;55.002;73.232;2022-09-03T11:21:37;28.13;;;5.45;;
72755;SDS011;60881;55.002;73.232;2022-09-03T11:24:22;40.13;;;5.93;;
72755;SDS011;60881;55.002;73.232;2022-09-03T11:26:56;41.72;;;6.80;;
72755;SDS011;60881;55.002;73.232;2022-09-03T11:32:23;62.65;;;9.60;;
72755;SDS011;60881;55.002;73.232;2022-09-03T11:35:22;66.35;;;8.13;;
72755;SDS011;60881;55.002;73.232;2022-09-03T11:40:38;67.40;;;9.68;;
72755;SDS011;60881;55.002;73.232;2022-09-03T11:46:05;50.47;;;10.60;;
72755;SDS011;60881;55.002;73.232;2022-09-03T11:48:38;54.20;;;10.43;;
72755;SDS011;60881;55.002;73.232;2022-09-03T11:54:02;55.63;;;10.40;;
72755;SDS011;60881;55.002;73.232;2022-09-03T11:56:38;58.70;;;10.70;;
72755;SDS011;60881;55.002;73.232;2022-09-03T11:59:21;60.83;;;10.13;;
72755;SDS011;60881;55.002;73.232;2022-09-03T12:01:59;58.08;;;10.13;;
72755;SDS011;60881;55.002;73.232;2022-09-03T12:04:34;45.60;;;9.48;;
72755;SDS011;60881;55.002;73.232;2022-09-03T12:18:20;66.13;;;9.93;;
72755;SDS011;60881;55.002;73.232;2022-09-03T12:23:25;56.70;;;9.90;;
72755;SDS011;60881;55.002;73.232;2022-09-03T12:25:57;58.05;;;9.77;;
72755;SDS011;60881;55.002;73.232;2022-09-03T12:28:41;47.15;;;9.40;;
72755;SDS011;60881;55.002;73.232;2022-09-03T12:31:14;59.70;;;9.02;;
72755;SDS011;60881;55.002;73.232;2022-09-03T12:33:52;58.88;;;10.43;;
72755;SDS011;60881;55.002;73.232;2022-09-03T12:36:24;66.03;;;9.38;;
72755;SDS011;60881;55.002;73.232;2022-09-03T12:39:06;68.78;;;10.48;;
72755;SDS011;60881;55.002;73.232;2022-09-03T12:47:02;89.38;;;11.38;;
72755;SDS011;60881;55.002;73.232;2022-09-03T12:49:39;77.85;;;11.73;;
72755;SDS011;60881;55.002;73.232;2022-09-03T12:55:26;64.53;;;12.13;;
72755;SDS011;60881;55.002;73.232;2022-09-03T13:00:48;72.43;;;13.45;;
72755;SDS011;60881;55.002;73.232;2022-09-03T13:03:56;65.15;;;12.75;;
72755;SDS011;60881;55.002;73.232;2022-09-03T13:06:28;74.65;;;13.65;;
72755;SDS011;60881;55.002;73.232;2022-09-03T13:09:01;61.92;;;13.02;;
72755;SDS011;60881;55.002;73.232;2022-09-03T13:11:34;85.80;;;13.65;;
72755;SDS011;60881;55.002;73.232;2022-09-03T13:14:08;92.95;;;14.25;;
72755;SDS011;60881;55.002;73.232;2022-09-03T13:27:41;76.45;;;12.77;;
72755;SDS011;60881;55.002;73.232;2022-09-03T13:30:10;67.03;;;12.95;;
72755;SDS011;60881;55.002;73.232;2022-09-03T13:33:01;69.03;;;13.52;;
72755;SDS011;60881;55.002;73.232;2022-09-03T13:35:44;66.65;;;13.85;;
72755;SDS011;60881;55.002;73.232;2022-09-03T13:38:38;85.68;;;13.80;;
72755;SDS011;60881;55.002;73.232;2022-09-03T13:44:11;68.03;;;14.30;;
72755;SDS011;60881;55.002;73.232;2022-09-03T13:46:42;77.47;;;14.88;;
72755;SDS011;60881;55.002;73.232;2022-09-03T13:55:55;72.50;;;15.07;;
72755;SDS011;60881;55.002;73.232;2022-09-03T13:58:25;88.68;;;15.77;;
72755;SDS011;60881;55.002;73.232;2022-09-03T14:08:41;80.30;;;15.27;;
72755;SDS011;60881;55.002;73.232;2022-09-03T14:11:51;69.47;;;13.95;;
72755;SDS011;60881;55.002;73.232;2022-09-03T14:17:12;64.40;;;13.18;;
72755;SDS011;60881;55.002;73.232;2022-09-03T14:20:05;49.80;;;13.88;;
72755;SDS011;60881;55.002;73.232;2022-09-03T14:25:34;50.15;;;12.02;;
72755;SDS011;60881;55.002;73.232;2022-09-03T14:28:30;76.15;;;12.23;;
72755;SDS011;60881;55.002;73.232;2022-09-03T14:36:48;54.80;;;11.85;;
72755;SDS011;60881;55.002;73.232;2022-09-03T14:39:46;67.10;;;11.00;;
72755;SDS011;60881;55.002;73.232;2022-09-03T14:47:53;53.20;;;12.05;;
72755;SDS011;60881;55.002;73.232;2022-09-03T14:56:32;68.40;;;12.30;;
72755;SDS011;60881;55.002;73.232;2022-09-03T15:07:55;83.20;;;9.80;;
72755;SDS011;60881;55.002;73.232;2022-09-03T15:13:27;63.13;;;9.05;;
72755;SDS011;60881;55.002;73.232;2022-09-03T15:19:14;73.65;;;8.75;;
72755;SDS011;60881;55.002;73.232;2022-09-03T15:21:51;57.00;;;7.82;;
72755;SDS011;60881;55.002;73.232;2022-09-03T15:32:29;46.65;;;6.53;;
72755;SDS011;60881;55.002;73.232;2022-09-03T15:38:04;59.85;;;6.22;;
72755;SDS011;60881;55.002;73.232;2022-09-03T15:41:57;40.22;;;6.20;;
72755;SDS011;60881;55.002;73.232;2022-09-03T15:44:00;60.28;;;7.00;;
72755;SDS011;60881;55.002;73.232;2022-09-03T15:46:46;53.75;;;6.50;;
72755;SDS011;60881;55.002;73.232;2022-09-03T15:49:22;62.83;;;6.35;;
72755;SDS011;60881;55.002;73.232;2022-09-03T15:52:29;70.70;;;6.30;;
72755;SDS011;60881;55.002;73.232;2022-09-03T15:55:10;40.28;;;6.25;;
72755;SDS011;60881;55.002;73.232;2022-09-03T16:00:16;81.20;;;6.28;;
72755;SDS011;60881;55.002;73.232;2022-09-03T16:05:48;65.45;;;5.43;;
72755;SDS011;60881;55.002;73.232;2022-09-03T16:11:41;83.53;;;6.38;;
72755;SDS011;60881;55.002;73.232;2022-09-03T16:17:17;64.38;;;5.13;;
72755;SDS011;60881;55.002;73.232;2022-09-03T16:19:55;59.60;;;5.03;;
72755;SDS011;60881;55.002;73.232;2022-09-03T16:22:42;64.18;;;5.22;;
72755;SDS011;60881;55.002;73.232;2022-09-03T16:27:53;52.88;;;5.22;;
72755;SDS011;60881;55.002;73.232;2022-09-03T16:33:14;59.83;;;5.47;;
72755;SDS011;60881;55.002;73.232;2022-09-03T16:36:00;45.95;;;4.55;;
72755;SDS011;60881;55.002;73.232;2022-09-03T16:41:42;106.18;;;6.78;;
72755;SDS011;60881;55.002;73.232;2022-09-03T16:52:28;61.00;;;5.28;;
72755;SDS011;60881;55.002;73.232;2022-09-03T16:55:29;52.00;;;5.47;;
72755;SDS011;60881;55.002;73.232;2022-09-03T17:01:20;42.80;;;5.50;;
72755;SDS011;60881;55.002;73.232;2022-09-03T17:09:48;55.80;;;4.80;;
72755;SDS011;60881;55.002;73.232;2022-09-03T17:18:30;52.35;;;5.20;;
72755;SDS011;60881;55.002;73.232;2022-09-03T17:27:04;74.07;;;5.53;;
72755;SDS011;60881;55.002;73.232;2022-09-03T17:29:49;79.07;;;5.90;;
72755;SDS011;60881;55.002;73.232;2022-09-03T17:32:27;53.17;;;5.65;;
72755;SDS011;60881;55.002;73.232;2022-09-03T17:35:33;72.95;;;6.70;;
72755;SDS011;60881;55.002;73.232;2022-09-03T17:46:50;77.45;;;7.03;;
72755;SDS011;60881;55.002;73.232;2022-09-03T17:49:44;62.17;;;6.20;;
72755;SDS011;60881;55.002;73.232;2022-09-03T17:52:24;73.47;;;6.63;;
72755;SDS011;60881;55.002;73.232;2022-09-03T17:55:10;37.22;;;5.82;;
72755;SDS011;60881;55.002;73.232;2022-09-03T17:57:51;71.82;;;6.85;;
72755;SDS011;60881;55.002;73.232;2022-09-03T18:03:58;58.33;;;6.47;;
72755;SDS011;60881;55.002;73.232;2022-09-03T18:06:44;71.72;;;6.85;;
72755;SDS011;60881;55.002;73.232;2022-09-03T18:09:27;65.55;;;6.95;;
72755;SDS011;60881;55.002;73.232;2022-09-03T18:12:08;53.37;;;7.03;;
72755;SDS011;60881;55.002;73.232;2022-09-03T18:17:34;78.63;;;8.32;;
72755;SDS011;60881;55.002;73.232;2022-09-03T18:20:13;131.82;;;10.73;;
72755;SDS011;60881;55.002;73.232;2022-09-03T18:23:00;241.10;;;14.05;;
72755;SDS011;60881;55.002;73.232;2022-09-03T18:26:02;435.77;;;24.17;;
72755;SDS011;60881;55.002;73.232;2022-09-03T18:32:20;152.90;;;18.52;;
72755;SDS011;60881;55.002;73.232;2022-09-03T18:35:15;147.15;;;19.02;;
72755;SDS011;60881;55.002;73.232;2022-09-03T18:38:10;121.25;;;15.95;;
72755;SDS011;60881;55.002;73.232;2022-09-03T18:40:57;141.57;;;11.60;;
72755;SDS011;60881;55.002;73.232;2022-09-03T18:47:25;55.72;;;6.25;;
72755;SDS011;60881;55.002;73.232;2022-09-03T19:11:57;26.60;;;4.10;;
72755;SDS011;60881;55.002;73.232;2022-09-03T19:15:00;43.10;;;6.65;;
72755;SDS011;60881;55.002;73.232;2022-09-03T19:18:07;44.13;;;4.30;;
72755;SDS011;60881;55.002;73.232;2022-09-03T19:23:58;18.25;;;3.10;;
72755;SDS011;60881;55.002;73.232;2022-09-03T19:36:19;19.77;;;2.90;;
72755;SDS011;60881;55.002;73.232;2022-09-03T19:42:48;15.90;;;3.35;;
72755;SDS011;60881;55.002;73.232;2022-09-03T19:48:56;11.95;;;3.10;;
72755;SDS011;60881;55.002;73.232;2022-09-03T19:51:54;15.32;;;2.72;;
72755;SDS011;60881;55.002;73.232;2022-09-03T19:54:52;10.45;;;2.72;;
72755;SDS011;60881;55.002;73.232;2022-09-03T19:57:42;12.85;;;2.60;;
72755;SDS011;60881;55.002;73.232;2022-09-03T20:00:33;26.55;;;3.00;;
72755;SDS011;60881;55.002;73.232;2022-09-03T20:03:18;15.63;;;3.53;;
72755;SDS011;60881;55.002;73.232;2022-09-03T20:06:05;12.57;;;2.60;;
72755;SDS011;60881;55.002;73.232;2022-09-03T20:08:51;10.98;;;3.10;;
72755;SDS011;60881;55.002;73.232;2022-09-03T20:11:44;6.72;;;2.78;;
72755;SDS011;60881;55.002;73.232;2022-09-03T20:14:14;8.98;;;3.08;;
72755;SDS011;60881;55.002;73.232;2022-09-03T20:19:19;20.02;;;6.20;;
72755;SDS011;60881;55.002;73.232;2022-09-03T20:25:01;11.65;;;3.85;;
72755;SDS011;60881;55.002;73.232;2022-09-03T20:28:03;25.00;;;6.60;;
72755;SDS011;60881;55.002;73.232;2022-09-03T20:33:45;9.15;;;3.03;;
72755;SDS011;60881;55.002;73.232;2022-09-03T20:36:43;8.82;;;3.45;;
72755;SDS011;60881;55.002;73.232;2022-09-03T20:39:23;17.55;;;4.13;;
72755;SDS011;60881;55.002;73.232;2022-09-03T20:52:56;17.15;;;5.05;;
72755;SDS011;60881;55.002;73.232;2022-09-03T20:55:43;13.23;;;5.00;;
72755;SDS011;60881;55.002;73.232;2022-09-03T20:58:35;11.57;;;4.10;;
72755;SDS011;60881;55.002;73.232;2022-09-03T21:01:27;21.70;;;4.53;;
72755;SDS011;60881;55.002;73.232;2022-09-03T21:06:52;12.43;;;4.25;;
72755;SDS011;60881;55.002;73.232;2022-09-03T21:21:42;24.08;;;4.75;;
72755;SDS011;60881;55.002;73.232;2022-09-03T21:24:46;15.13;;;4.95;;